sensor_id;sensor_type;location;lat;lon;timestamp;P1;durP1;ratioP1;P2;durP2;ratioP2
297;SDS011;133;49.626;9.680;2022-07-30T00:02:04;12.10;;;11.50;;
297;SDS011;133;49.626;9.680;2022-07-30T00:04:30;14.47;;;13.80;;
297;SDS011;133;49.626;9.680;2022-07-30T00:06:59;13.70;;;12.93;;
297;SDS011;133;49.626;9.680;2022-07-30T00:09:25;12.00;;;11.33;;
297;SDS011;133;49.626;9.680;2022-07-30T00:11:50;15.17;;;14.03;;
297;SDS011;133;49.626;9.680;2022-07-30T00:14:16;12.93;;;12.23;;
297;SDS011;133;49.626;9.680;2022-07-30T00:16:41;16.80;;;13.63;;
297;SDS011;133;49.626;9.680;2022-07-30T00:19:07;12.73;;;12.03;;
297;SDS011;133;49.626;9.680;2022-07-30T00:21:33;18.90;;;14.90;;
297;SDS011;133;49.626;9.680;2022-07-30T00:23:59;15.27;;;12.70;;
297;SDS011;133;49.626;9.680;2022-07-30T00:26:25;13.63;;;12.93;;
297;SDS011;133;49.626;9.680;2022-07-30T00:28:50;12.80;;;12.03;;
297;SDS011;133;49.626;9.680;2022-07-30T00:31:16;16.10;;;13.77;;
297;SDS011;133;49.626;9.680;2022-07-30T00:33:42;15.77;;;13.00;;
297;SDS011;133;49.626;9.680;2022-07-30T00:36:07;14.77;;;14.00;;
297;SDS011;133;49.626;9.680;2022-07-30T00:38:33;14.90;;;12.30;;
297;SDS011;133;49.626;9.680;2022-07-30T00:40:58;13.40;;;12.70;;
297;SDS011;133;49.626;9.680;2022-07-30T00:43:24;15.00;;;14.23;;
297;SDS011;133;49.626;9.680;2022-07-30T00:45:49;15.07;;;13.30;;
297;SDS011;133;49.626;9.680;2022-07-30T00:48:15;12.90;;;12.00;;
297;SDS011;133;49.626;9.680;2022-07-30T00:50:41;15.00;;;13.50;;
297;SDS011;133;49.626;9.680;2022-07-30T00:53:07;14.87;;;14.07;;
297;SDS011;133;49.626;9.680;2022-07-30T00:55:33;16.47;;;14.03;;
297;SDS011;133;49.626;9.680;2022-07-30T00:57:59;16.73;;;15.60;;
297;SDS011;133;49.626;9.680;2022-07-30T01:00:25;17.90;;;15.67;;
297;SDS011;133;49.626;9.680;2022-07-30T01:02:52;16.00;;;13.97;;
297;SDS011;133;49.626;9.680;2022-07-30T01:05:17;17.70;;;14.27;;
297;SDS011;133;49.626;9.680;2022-07-30T01:07:43;14.93;;;13.30;;
297;SDS011;133;49.626;9.680;2022-07-30T01:10:10;20.50;;;15.03;;
297;SDS011;133;49.626;9.680;2022-07-30T01:12:39;16.50;;;15.30;;
297;SDS011;133;49.626;9.680;2022-07-30T01:15:06;16.97;;;15.20;;
297;SDS011;133;49.626;9.680;2022-07-30T01:17:34;31.97;;;17.00;;
297;SDS011;133;49.626;9.680;2022-07-30T01:20:44;25.67;;;16.70;;
297;SDS011;133;49.626;9.680;2022-07-30T01:26:02;26.13;;;18.10;;
297;SDS011;133;49.626;9.680;2022-07-30T01:28:33;19.20;;;16.27;;
297;SDS011;133;49.626;9.680;2022-07-30T01:31:01;19.27;;;16.77;;
297;SDS011;133;49.626;9.680;2022-07-30T01:33:28;20.70;;;16.73;;
297;SDS011;133;49.626;9.680;2022-07-30T01:35:56;20.23;;;16.80;;
297;SDS011;133;49.626;9.680;2022-07-30T01:38:23;16.97;;;15.47;;
297;SDS011;133;49.626;9.680;2022-07-30T01:40:51;25.53;;;17.33;;
297;SDS011;133;49.626;9.680;2022-07-30T01:43:19;24.73;;;17.10;;
297;SDS011;133;49.626;9.680;2022-07-30T01:45:47;19.63;;;15.40;;
297;SDS011;133;49.626;9.680;2022-07-30T01:48:14;22.30;;;15.03;;
297;SDS011;133;49.626;9.680;2022-07-30T01:50:43;17.27;;;14.60;;
297;SDS011;133;49.626;9.680;2022-07-30T01:53:17;16.07;;;13.80;;
297;SDS011;133;49.626;9.680;2022-07-30T01:55:46;15.80;;;13.87;;
297;SDS011;133;49.626;9.680;2022-07-30T01:58:13;15.10;;;13.03;;
297;SDS011;133;49.626;9.680;2022-07-30T02:00:42;12.80;;;12.07;;
297;SDS011;133;49.626;9.680;2022-07-30T02:03:09;21.47;;;16.43;;
297;SDS011;133;49.626;9.680;2022-07-30T02:05:36;12.47;;;11.87;;
297;SDS011;133;49.626;9.680;2022-07-30T02:10:50;15.60;;;14.80;;
297;SDS011;133;49.626;9.680;2022-07-30T02:13:21;14.30;;;13.50;;
297;SDS011;133;49.626;9.680;2022-07-30T02:18:23;12.33;;;11.80;;
297;SDS011;133;49.626;9.680;2022-07-30T02:21:12;17.43;;;13.33;;
297;SDS011;133;49.626;9.680;2022-07-30T02:23:43;12.43;;;11.83;;
297;SDS011;133;49.626;9.680;2022-07-30T02:26:13;13.97;;;13.23;;
297;SDS011;133;49.626;9.680;2022-07-30T02:28:44;11.33;;;10.73;;
297;SDS011;133;49.626;9.680;2022-07-30T02:31:16;15.10;;;12.80;;
297;SDS011;133;49.626;9.680;2022-07-30T02:33:44;12.13;;;11.57;;
297;SDS011;133;49.626;9.680;2022-07-30T02:36:14;14.00;;;12.77;;
297;SDS011;133;49.626;9.680;2022-07-30T02:38:42;14.10;;;13.40;;
297;SDS011;133;49.626;9.680;2022-07-30T02:41:09;15.33;;;14.07;;
297;SDS011;133;49.626;9.680;2022-07-30T02:43:38;17.60;;;13.73;;
297;SDS011;133;49.626;9.680;2022-07-30T02:46:05;23.97;;;14.87;;
297;SDS011;133;49.626;9.680;2022-07-30T02:48:33;16.43;;;14.47;;
297;SDS011;133;49.626;9.680;2022-07-30T02:51:02;15.30;;;13.07;;
297;SDS011;133;49.626;9.680;2022-07-30T02:53:28;23.43;;;15.73;;
297;SDS011;133;49.626;9.680;2022-07-30T02:55:56;24.13;;;15.07;;
297;SDS011;133;49.626;9.680;2022-07-30T02:58:24;39.50;;;17.30;;
297;SDS011;133;49.626;9.680;2022-07-30T03:00:52;15.60;;;14.27;;
297;SDS011;133;49.626;9.680;2022-07-30T03:03:19;38.97;;;17.63;;
297;SDS011;133;49.626;9.680;2022-07-30T03:05:47;36.03;;;14.33;;
297;SDS011;133;49.626;9.680;2022-07-30T03:08:15;22.37;;;13.70;;
297;SDS011;133;49.626;9.680;2022-07-30T03:10:41;15.97;;;13.47;;
297;SDS011;133;49.626;9.680;2022-07-30T03:13:09;21.63;;;14.03;;
297;SDS011;133;49.626;9.680;2022-07-30T03:15:37;16.30;;;14.50;;
297;SDS011;133;49.626;9.680;2022-07-30T03:18:09;21.00;;;14.80;;
297;SDS011;133;49.626;9.680;2022-07-30T03:20:37;19.63;;;14.87;;
297;SDS011;133;49.626;9.680;2022-07-30T03:23:04;14.90;;;13.03;;
297;SDS011;133;49.626;9.680;2022-07-30T03:25:32;33.00;;;15.37;;
297;SDS011;133;49.626;9.680;2022-07-30T03:27:59;15.10;;;14.07;;
297;SDS011;133;49.626;9.680;2022-07-30T03:30:28;33.33;;;17.60;;
297;SDS011;133;49.626;9.680;2022-07-30T03:32:54;22.00;;;15.57;;
297;SDS011;133;49.626;9.680;2022-07-30T03:35:21;31.40;;;17.87;;
297;SDS011;133;49.626;9.680;2022-07-30T03:37:51;21.67;;;15.27;;
297;SDS011;133;49.626;9.680;2022-07-30T03:40:21;24.90;;;14.63;;
297;SDS011;133;49.626;9.680;2022-07-30T03:42:47;26.10;;;16.50;;
297;SDS011;133;49.626;9.680;2022-07-30T03:45:14;31.77;;;18.40;;
297;SDS011;133;49.626;9.680;2022-07-30T03:47:40;28.77;;;17.73;;
297;SDS011;133;49.626;9.680;2022-07-30T03:50:07;17.00;;;14.13;;
297;SDS011;133;49.626;9.680;2022-07-30T03:52:35;21.97;;;15.00;;
297;SDS011;133;49.626;9.680;2022-07-30T03:55:04;26.20;;;15.00;;
297;SDS011;133;49.626;9.680;2022-07-30T03:57:31;19.30;;;16.23;;
297;SDS011;133;49.626;9.680;2022-07-30T03:59:57;20.27;;;15.70;;
297;SDS011;133;49.626;9.680;2022-07-30T04:02:23;18.00;;;15.20;;
297;SDS011;133;49.626;9.680;2022-07-30T04:04:49;16.33;;;13.77;;
297;SDS011;133;49.626;9.680;2022-07-30T04:07:15;21.30;;;15.97;;
297;SDS011;133;49.626;9.680;2022-07-30T04:09:40;21.43;;;15.07;;
297;SDS011;133;49.626;9.680;2022-07-30T04:12:06;25.50;;;19.10;;
297;SDS011;133;49.626;9.680;2022-07-30T04:14:39;22.47;;;17.37;;
297;SDS011;133;49.626;9.680;2022-07-30T04:17:28;24.30;;;15.40;;
297;SDS011;133;49.626;9.680;2022-07-30T04:19:59;17.20;;;15.20;;
297;SDS011;133;49.626;9.680;2022-07-30T04:22:31;88.77;;;18.30;;
297;SDS011;133;49.626;9.680;2022-07-30T04:25:02;140.50;;;22.47;;
297;SDS011;133;49.626;9.680;2022-07-30T04:27:30;36.20;;;19.03;;
297;SDS011;133;49.626;9.680;2022-07-30T04:29:57;24.90;;;17.77;;
297;SDS011;133;49.626;9.680;2022-07-30T04:32:24;25.50;;;16.70;;
297;SDS011;133;49.626;9.680;2022-07-30T04:34:50;32.60;;;18.67;;
297;SDS011;133;49.626;9.680;2022-07-30T04:37:18;20.30;;;15.63;;
297;SDS011;133;49.626;9.680;2022-07-30T04:39:44;17.63;;;14.80;;
297;SDS011;133;49.626;9.680;2022-07-30T04:42:13;20.60;;;15.43;;
297;SDS011;133;49.626;9.680;2022-07-30T04:44:39;23.60;;;16.87;;
297;SDS011;133;49.626;9.680;2022-07-30T04:47:05;21.90;;;14.37;;
297;SDS011;133;49.626;9.680;2022-07-30T04:49:31;17.37;;;14.53;;
297;SDS011;133;49.626;9.680;2022-07-30T04:51:57;16.67;;;14.60;;
297;SDS011;133;49.626;9.680;2022-07-30T04:54:24;21.43;;;16.60;;
297;SDS011;133;49.626;9.680;2022-07-30T04:56:50;28.67;;;14.43;;
297;SDS011;133;49.626;9.680;2022-07-30T04:59:17;25.23;;;16.67;;
297;SDS011;133;49.626;9.680;2022-07-30T05:01:45;23.93;;;14.43;;
297;SDS011;133;49.626;9.680;2022-07-30T05:04:25;23.53;;;16.17;;
297;SDS011;133;49.626;9.680;2022-07-30T05:06:53;18.83;;;15.80;;
297;SDS011;133;49.626;9.680;2022-07-30T05:09:20;15.80;;;13.60;;
297;SDS011;133;49.626;9.680;2022-07-30T05:11:56;17.20;;;14.90;;
297;SDS011;133;49.626;9.680;2022-07-30T05:14:23;17.50;;;14.30;;
297;SDS011;133;49.626;9.680;2022-07-30T05:16:51;17.33;;;14.60;;
297;SDS011;133;49.626;9.680;2022-07-30T05:19:17;15.70;;;14.23;;
297;SDS011;133;49.626;9.680;2022-07-30T05:21:43;16.17;;;13.67;;
297;SDS011;133;49.626;9.680;2022-07-30T05:24:09;13.40;;;12.70;;
297;SDS011;133;49.626;9.680;2022-07-30T05:26:35;28.70;;;17.20;;
297;SDS011;133;49.626;9.680;2022-07-30T05:29:01;16.80;;;13.90;;
297;SDS011;133;49.626;9.680;2022-07-30T05:31:26;17.10;;;14.60;;
297;SDS011;133;49.626;9.680;2022-07-30T05:33:52;16.77;;;14.70;;
297;SDS011;133;49.626;9.680;2022-07-30T05:36:18;19.57;;;15.87;;
297;SDS011;133;49.626;9.680;2022-07-30T05:38:44;18.70;;;17.37;;
297;SDS011;133;49.626;9.680;2022-07-30T05:41:10;19.73;;;16.50;;
297;SDS011;133;49.626;9.680;2022-07-30T05:43:35;20.93;;;17.00;;
297;SDS011;133;49.626;9.680;2022-07-30T05:46:01;15.03;;;13.90;;
297;SDS011;133;49.626;9.680;2022-07-30T05:48:27;18.37;;;15.70;;
297;SDS011;133;49.626;9.680;2022-07-30T05:50:52;16.13;;;13.43;;
297;SDS011;133;49.626;9.680;2022-07-30T05:53:18;19.77;;;16.23;;
297;SDS011;133;49.626;9.680;2022-07-30T05:55:44;18.23;;;14.83;;
297;SDS011;133;49.626;9.680;2022-07-30T05:58:09;18.10;;;15.57;;
297;SDS011;133;49.626;9.680;2022-07-30T06:00:35;21.70;;;15.33;;
297;SDS011;133;49.626;9.680;2022-07-30T06:03:01;19.13;;;15.90;;
297;SDS011;133;49.626;9.680;2022-07-30T06:05:27;21.27;;;16.73;;
297;SDS011;133;49.626;9.680;2022-07-30T06:07:53;17.83;;;15.87;;
297;SDS011;133;49.626;9.680;2022-07-30T06:10:19;22.10;;;15.93;;
297;SDS011;133;49.626;9.680;2022-07-30T06:12:45;16.53;;;14.63;;
297;SDS011;133;49.626;9.680;2022-07-30T06:15:10;22.70;;;16.70;;
297;SDS011;133;49.626;9.680;2022-07-30T06:17:40;18.03;;;13.50;;
297;SDS011;133;49.626;9.680;2022-07-30T06:20:07;16.77;;;15.03;;
297;SDS011;133;49.626;9.680;2022-07-30T06:22:33;18.97;;;15.40;;
297;SDS011;133;49.626;9.680;2022-07-30T06:24:59;13.43;;;12.13;;
297;SDS011;133;49.626;9.680;2022-07-30T06:27:24;17.20;;;14.30;;
297;SDS011;133;49.626;9.680;2022-07-30T06:29:51;16.70;;;14.20;;
297;SDS011;133;49.626;9.680;2022-07-30T06:32:17;19.17;;;17.07;;
297;SDS011;133;49.626;9.680;2022-07-30T06:34:43;16.37;;;14.03;;
297;SDS011;133;49.626;9.680;2022-07-30T06:37:09;23.10;;;18.33;;
297;SDS011;133;49.626;9.680;2022-07-30T06:39:35;18.67;;;15.87;;
297;SDS011;133;49.626;9.680;2022-07-30T06:42:00;21.13;;;16.43;;
297;SDS011;133;49.626;9.680;2022-07-30T06:44:26;17.73;;;16.07;;
297;SDS011;133;49.626;9.680;2022-07-30T06:46:52;20.17;;;16.70;;
297;SDS011;133;49.626;9.680;2022-07-30T06:49:17;20.70;;;16.67;;
297;SDS011;133;49.626;9.680;2022-07-30T06:51:43;19.13;;;16.07;;
297;SDS011;133;49.626;9.680;2022-07-30T06:54:10;21.00;;;16.37;;
297;SDS011;133;49.626;9.680;2022-07-30T06:56:35;19.87;;;16.53;;
297;SDS011;133;49.626;9.680;2022-07-30T06:59:01;19.80;;;16.50;;
297;SDS011;133;49.626;9.680;2022-07-30T07:01:27;20.77;;;16.60;;
297;SDS011;133;49.626;9.680;2022-07-30T07:03:53;16.47;;;15.27;;
297;SDS011;133;49.626;9.680;2022-07-30T07:06:18;18.50;;;15.27;;
297;SDS011;133;49.626;9.680;2022-07-30T07:08:44;20.70;;;16.40;;
297;SDS011;133;49.626;9.680;2022-07-30T07:11:09;16.03;;;14.70;;
297;SDS011;133;49.626;9.680;2022-07-30T07:13:35;20.83;;;16.50;;
297;SDS011;133;49.626;9.680;2022-07-30T07:16:01;19.27;;;16.57;;
297;SDS011;133;49.626;9.680;2022-07-30T07:18:26;20.23;;;17.23;;
297;SDS011;133;49.626;9.680;2022-07-30T07:20:52;17.27;;;16.17;;
297;SDS011;133;49.626;9.680;2022-07-30T07:23:18;20.00;;;17.30;;
297;SDS011;133;49.626;9.680;2022-07-30T07:25:43;16.17;;;13.90;;
297;SDS011;133;49.626;9.680;2022-07-30T07:28:09;22.57;;;18.20;;
297;SDS011;133;49.626;9.680;2022-07-30T07:30:34;20.30;;;17.40;;
297;SDS011;133;49.626;9.680;2022-07-30T07:33:00;19.27;;;16.90;;
297;SDS011;133;49.626;9.680;2022-07-30T07:35:26;21.63;;;18.27;;
297;SDS011;133;49.626;9.680;2022-07-30T07:37:51;21.20;;;16.73;;
297;SDS011;133;49.626;9.680;2022-07-30T07:40:17;19.20;;;16.40;;
297;SDS011;133;49.626;9.680;2022-07-30T07:42:42;18.50;;;14.90;;
297;SDS011;133;49.626;9.680;2022-07-30T07:45:08;18.13;;;14.50;;
297;SDS011;133;49.626;9.680;2022-07-30T07:47:44;19.00;;;15.57;;
297;SDS011;133;49.626;9.680;2022-07-30T07:50:11;15.30;;;13.87;;
297;SDS011;133;49.626;9.680;2022-07-30T07:52:39;15.90;;;14.47;;
297;SDS011;133;49.626;9.680;2022-07-30T07:55:05;15.47;;;13.70;;
297;SDS011;133;49.626;9.680;2022-07-30T07:57:39;14.03;;;12.50;;
297;SDS011;133;49.626;9.680;2022-07-30T08:00:06;13.20;;;12.27;;
297;SDS011;133;49.626;9.680;2022-07-30T08:02:33;11.83;;;10.67;;
297;SDS011;133;49.626;9.680;2022-07-30T08:04:59;13.30;;;10.30;;
297;SDS011;133;49.626;9.680;2022-07-30T08:07:24;10.70;;;10.10;;
297;SDS011;133;49.626;9.680;2022-07-30T08:09:50;11.50;;;10.80;;
297;SDS011;133;49.626;9.680;2022-07-30T08:12:15;12.40;;;9.80;;
297;SDS011;133;49.626;9.680;2022-07-30T08:14:41;10.10;;;9.60;;
297;SDS011;133;49.626;9.680;2022-07-30T08:17:07;10.17;;;9.53;;
297;SDS011;133;49.626;9.680;2022-07-30T08:19:33;10.57;;;9.30;;
297;SDS011;133;49.626;9.680;2022-07-30T08:21:58;10.20;;;9.57;;
297;SDS011;133;49.626;9.680;2022-07-30T08:24:24;12.40;;;9.07;;
297;SDS011;133;49.626;9.680;2022-07-30T08:26:50;11.37;;;8.90;;
297;SDS011;133;49.626;9.680;2022-07-30T08:29:15;11.60;;;9.70;;
297;SDS011;133;49.626;9.680;2022-07-30T08:31:41;8.93;;;8.43;;
297;SDS011;133;49.626;9.680;2022-07-30T08:34:07;7.70;;;7.30;;
297;SDS011;133;49.626;9.680;2022-07-30T08:36:32;14.20;;;9.57;;
297;SDS011;133;49.626;9.680;2022-07-30T08:38:58;9.33;;;8.83;;
297;SDS011;133;49.626;9.680;2022-07-30T08:41:24;13.20;;;9.80;;
297;SDS011;133;49.626;9.680;2022-07-30T08:43:50;9.93;;;8.67;;
297;SDS011;133;49.626;9.680;2022-07-30T08:46:18;11.17;;;8.83;;
297;SDS011;133;49.626;9.680;2022-07-30T08:48:53;9.10;;;8.60;;
297;SDS011;133;49.626;9.680;2022-07-30T08:51:29;10.53;;;9.30;;
297;SDS011;133;49.626;9.680;2022-07-30T08:53:54;9.47;;;8.43;;
297;SDS011;133;49.626;9.680;2022-07-30T08:56:36;11.90;;;9.27;;
297;SDS011;133;49.626;9.680;2022-07-30T08:59:23;8.00;;;7.60;;
297;SDS011;133;49.626;9.680;2022-07-30T09:01:49;10.40;;;7.17;;
297;SDS011;133;49.626;9.680;2022-07-30T09:04:16;8.10;;;7.10;;
297;SDS011;133;49.626;9.680;2022-07-30T09:06:42;7.80;;;7.00;;
297;SDS011;133;49.626;9.680;2022-07-30T09:09:08;7.33;;;6.90;;
297;SDS011;133;49.626;9.680;2022-07-30T09:11:34;7.77;;;6.00;;
297;SDS011;133;49.626;9.680;2022-07-30T09:14:09;8.07;;;6.90;;
297;SDS011;133;49.626;9.680;2022-07-30T09:16:37;10.40;;;6.47;;
297;SDS011;133;49.626;9.680;2022-07-30T09:19:10;7.77;;;6.40;;
297;SDS011;133;49.626;9.680;2022-07-30T09:21:38;9.10;;;5.30;;
297;SDS011;133;49.626;9.680;2022-07-30T09:24:07;6.03;;;5.40;;
297;SDS011;133;49.626;9.680;2022-07-30T09:29:28;5.80;;;5.43;;
297;SDS011;133;49.626;9.680;2022-07-30T09:31:58;6.37;;;5.23;;
297;SDS011;133;49.626;9.680;2022-07-30T09:36:56;6.27;;;5.20;;
297;SDS011;133;49.626;9.680;2022-07-30T09:39:35;4.57;;;4.27;;
297;SDS011;133;49.626;9.680;2022-07-30T09:42:18;6.03;;;5.53;;
297;SDS011;133;49.626;9.680;2022-07-30T09:44:45;7.37;;;5.60;;
297;SDS011;133;49.626;9.680;2022-07-30T09:47:28;5.77;;;4.70;;
297;SDS011;133;49.626;9.680;2022-07-30T09:50:05;9.27;;;5.43;;
297;SDS011;133;49.626;9.680;2022-07-30T09:52:34;6.57;;;5.23;;
297;SDS011;133;49.626;9.680;2022-07-30T09:55:01;8.53;;;5.60;;
297;SDS011;133;49.626;9.680;2022-07-30T09:57:27;8.37;;;4.73;;
297;SDS011;133;49.626;9.680;2022-07-30T09:59:54;4.53;;;4.10;;
297;SDS011;133;49.626;9.680;2022-07-30T10:02:27;6.03;;;3.90;;
297;SDS011;133;49.626;9.680;2022-07-30T10:05:17;5.87;;;4.50;;
297;SDS011;133;49.626;9.680;2022-07-30T10:07:46;6.93;;;4.17;;
297;SDS011;133;49.626;9.680;2022-07-30T10:10:18;7.50;;;4.40;;
297;SDS011;133;49.626;9.680;2022-07-30T10:12:47;6.37;;;4.67;;
297;SDS011;133;49.626;9.680;2022-07-30T10:15:17;4.10;;;3.87;;
297;SDS011;133;49.626;9.680;2022-07-30T10:17:46;4.90;;;4.60;;
297;SDS011;133;49.626;9.680;2022-07-30T10:20:13;4.50;;;4.20;;
297;SDS011;133;49.626;9.680;2022-07-30T10:22:39;7.40;;;6.03;;
297;SDS011;133;49.626;9.680;2022-07-30T10:25:07;7.23;;;5.23;;
297;SDS011;133;49.626;9.680;2022-07-30T10:27:33;8.73;;;6.10;;
297;SDS011;133;49.626;9.680;2022-07-30T10:29:59;9.93;;;5.80;;
297;SDS011;133;49.626;9.680;2022-07-30T10:32:25;5.60;;;5.30;;
297;SDS011;133;49.626;9.680;2022-07-30T10:34:51;8.87;;;5.87;;
297;SDS011;133;49.626;9.680;2022-07-30T10:37:17;8.37;;;6.40;;
297;SDS011;133;49.626;9.680;2022-07-30T10:39:51;11.43;;;7.33;;
297;SDS011;133;49.626;9.680;2022-07-30T10:42:31;6.40;;;5.70;;
297;SDS011;133;49.626;9.680;2022-07-30T10:45:06;6.60;;;6.20;;
297;SDS011;133;49.626;9.680;2022-07-30T10:47:44;8.60;;;6.20;;
297;SDS011;133;49.626;9.680;2022-07-30T10:50:18;7.10;;;6.03;;
297;SDS011;133;49.626;9.680;2022-07-30T10:55:23;6.33;;;4.90;;
297;SDS011;133;49.626;9.680;2022-07-30T10:58:10;6.20;;;4.90;;
297;SDS011;133;49.626;9.680;2022-07-30T11:05:51;6.57;;;5.40;;
297;SDS011;133;49.626;9.680;2022-07-30T11:08:40;6.43;;;5.10;;
297;SDS011;133;49.626;9.680;2022-07-30T11:21:36;5.40;;;5.17;;
297;SDS011;133;49.626;9.680;2022-07-30T11:24:03;5.30;;;5.00;;
297;SDS011;133;49.626;9.680;2022-07-30T11:29:05;5.53;;;5.20;;
297;SDS011;133;49.626;9.680;2022-07-30T11:31:33;7.27;;;5.37;;
297;SDS011;133;49.626;9.680;2022-07-30T11:42:37;7.40;;;5.23;;
297;SDS011;133;49.626;9.680;2022-07-30T11:47:44;6.90;;;5.87;;
297;SDS011;133;49.626;9.680;2022-07-30T11:50:21;6.83;;;5.70;;
297;SDS011;133;49.626;9.680;2022-07-30T11:52:59;5.97;;;5.67;;
297;SDS011;133;49.626;9.680;2022-07-30T11:55:27;8.87;;;5.97;;
297;SDS011;133;49.626;9.680;2022-07-30T11:57:56;10.47;;;6.30;;
297;SDS011;133;49.626;9.680;2022-07-30T12:00:23;9.50;;;6.30;;
297;SDS011;133;49.626;9.680;2022-07-30T12:02:49;7.10;;;5.90;;
297;SDS011;133;49.626;9.680;2022-07-30T12:05:21;7.37;;;5.87;;
297;SDS011;133;49.626;9.680;2022-07-30T12:07:49;11.03;;;6.20;;
297;SDS011;133;49.626;9.680;2022-07-30T12:10:17;7.53;;;5.90;;
297;SDS011;133;49.626;9.680;2022-07-30T12:12:43;9.57;;;5.63;;
297;SDS011;133;49.626;9.680;2022-07-30T12:15:10;10.60;;;6.30;;
297;SDS011;133;49.626;9.680;2022-07-30T12:17:51;10.77;;;5.97;;
297;SDS011;133;49.626;9.680;2022-07-30T12:20:17;9.00;;;5.70;;
297;SDS011;133;49.626;9.680;2022-07-30T12:22:43;6.83;;;5.90;;
297;SDS011;133;49.626;9.680;2022-07-30T12:25:09;9.00;;;6.10;;
297;SDS011;133;49.626;9.680;2022-07-30T12:27:36;6.73;;;5.67;;
297;SDS011;133;49.626;9.680;2022-07-30T12:30:03;5.67;;;5.40;;
297;SDS011;133;49.626;9.680;2022-07-30T12:32:29;7.43;;;5.07;;
297;SDS011;133;49.626;9.680;2022-07-30T12:34:56;9.00;;;4.97;;
297;SDS011;133;49.626;9.680;2022-07-30T12:37:22;5.60;;;5.30;;
297;SDS011;133;49.626;9.680;2022-07-30T12:39:48;5.93;;;5.40;;
297;SDS011;133;49.626;9.680;2022-07-30T12:42:17;7.10;;;4.70;;
297;SDS011;133;49.626;9.680;2022-07-30T12:44:43;5.30;;;5.00;;
297;SDS011;133;49.626;9.680;2022-07-30T12:47:25;6.00;;;5.70;;
297;SDS011;133;49.626;9.680;2022-07-30T12:49:53;7.73;;;5.20;;
297;SDS011;133;49.626;9.680;2022-07-30T12:52:27;6.13;;;4.87;;
297;SDS011;133;49.626;9.680;2022-07-30T12:58:13;5.03;;;4.73;;
297;SDS011;133;49.626;9.680;2022-07-30T13:00:23;4.70;;;4.40;;
297;SDS011;133;49.626;9.680;2022-07-30T13:02:50;7.23;;;4.47;;
297;SDS011;133;49.626;9.680;2022-07-30T13:05:17;6.30;;;5.33;;
297;SDS011;133;49.626;9.680;2022-07-30T13:07:57;5.47;;;4.90;;
297;SDS011;133;49.626;9.680;2022-07-30T13:10:24;11.10;;;4.60;;
297;SDS011;133;49.626;9.680;2022-07-30T13:12:51;5.70;;;4.93;;
297;SDS011;133;49.626;9.680;2022-07-30T13:15:17;5.00;;;4.47;;
297;SDS011;133;49.626;9.680;2022-07-30T13:17:44;4.97;;;4.70;;
297;SDS011;133;49.626;9.680;2022-07-30T13:20:10;4.50;;;4.20;;
297;SDS011;133;49.626;9.680;2022-07-30T13:22:36;5.60;;;4.20;;
297;SDS011;133;49.626;9.680;2022-07-30T13:25:02;4.40;;;4.10;;
297;SDS011;133;49.626;9.680;2022-07-30T13:27:28;11.20;;;4.03;;
297;SDS011;133;49.626;9.680;2022-07-30T13:29:53;4.33;;;4.03;;
297;SDS011;133;49.626;9.680;2022-07-30T13:32:19;4.80;;;4.50;;
297;SDS011;133;49.626;9.680;2022-07-30T13:34:45;4.03;;;3.83;;
297;SDS011;133;49.626;9.680;2022-07-30T13:37:10;4.30;;;4.00;;
297;SDS011;133;49.626;9.680;2022-07-30T13:39:36;5.33;;;4.27;;
297;SDS011;133;49.626;9.680;2022-07-30T13:42:02;5.17;;;4.20;;
297;SDS011;133;49.626;9.680;2022-07-30T13:44:27;6.63;;;4.03;;
297;SDS011;133;49.626;9.680;2022-07-30T13:46:53;5.97;;;3.83;;
297;SDS011;133;49.626;9.680;2022-07-30T13:49:19;4.60;;;4.13;;
297;SDS011;133;49.626;9.680;2022-07-30T13:51:44;4.50;;;4.20;;
297;SDS011;133;49.626;9.680;2022-07-30T13:54:10;3.87;;;3.70;;
297;SDS011;133;49.626;9.680;2022-07-30T13:56:35;3.93;;;3.73;;
297;SDS011;133;49.626;9.680;2022-07-30T13:59:01;4.93;;;3.50;;
297;SDS011;133;49.626;9.680;2022-07-30T14:01:27;3.77;;;3.57;;
297;SDS011;133;49.626;9.680;2022-07-30T14:03:52;3.70;;;3.50;;
297;SDS011;133;49.626;9.680;2022-07-30T14:06:18;6.10;;;3.70;;
297;SDS011;133;49.626;9.680;2022-07-30T14:08:43;4.00;;;3.60;;
297;SDS011;133;49.626;9.680;2022-07-30T14:11:09;3.90;;;3.70;;
297;SDS011;133;49.626;9.680;2022-07-30T14:13:36;5.33;;;3.83;;
297;SDS011;133;49.626;9.680;2022-07-30T14:16:02;4.10;;;3.33;;
297;SDS011;133;49.626;9.680;2022-07-30T14:18:28;4.67;;;4.37;;
297;SDS011;133;49.626;9.680;2022-07-30T14:20:54;5.77;;;4.07;;
297;SDS011;133;49.626;9.680;2022-07-30T14:23:20;3.80;;;3.30;;
297;SDS011;133;49.626;9.680;2022-07-30T14:25:45;3.97;;;3.43;;
297;SDS011;133;49.626;9.680;2022-07-30T14:28:11;4.93;;;4.07;;
297;SDS011;133;49.626;9.680;2022-07-30T14:30:37;6.53;;;4.17;;
297;SDS011;133;49.626;9.680;2022-07-30T14:33:03;5.30;;;3.30;;
297;SDS011;133;49.626;9.680;2022-07-30T14:35:28;5.60;;;3.80;;
297;SDS011;133;49.626;9.680;2022-07-30T14:37:54;3.70;;;3.50;;
297;SDS011;133;49.626;9.680;2022-07-30T14:40:20;4.23;;;4.00;;
297;SDS011;133;49.626;9.680;2022-07-30T14:42:45;3.70;;;3.50;;
297;SDS011;133;49.626;9.680;2022-07-30T14:45:12;4.53;;;3.40;;
297;SDS011;133;49.626;9.680;2022-07-30T14:47:38;4.37;;;3.53;;
297;SDS011;133;49.626;9.680;2022-07-30T14:50:04;4.13;;;3.33;;
297;SDS011;133;49.626;9.680;2022-07-30T14:52:31;3.40;;;3.20;;
297;SDS011;133;49.626;9.680;2022-07-30T14:55:02;4.70;;;3.30;;
297;SDS011;133;49.626;9.680;2022-07-30T14:57:32;3.40;;;3.20;;
297;SDS011;133;49.626;9.680;2022-07-30T14:59:58;4.60;;;3.57;;
297;SDS011;133;49.626;9.680;2022-07-30T15:02:23;4.20;;;3.20;;
297;SDS011;133;49.626;9.680;2022-07-30T15:04:49;3.53;;;3.30;;
297;SDS011;133;49.626;9.680;2022-07-30T15:07:15;3.30;;;3.00;;
297;SDS011;133;49.626;9.680;2022-07-30T15:09:40;3.50;;;3.30;;
297;SDS011;133;49.626;9.680;2022-07-30T15:12:06;3.33;;;3.07;;
297;SDS011;133;49.626;9.680;2022-07-30T15:14:36;3.27;;;3.07;;
297;SDS011;133;49.626;9.680;2022-07-30T15:17:02;3.23;;;3.00;;
297;SDS011;133;49.626;9.680;2022-07-30T15:19:27;3.30;;;3.13;;
297;SDS011;133;49.626;9.680;2022-07-30T15:21:53;3.00;;;2.80;;
297;SDS011;133;49.626;9.680;2022-07-30T15:24:19;3.50;;;3.13;;
297;SDS011;133;49.626;9.680;2022-07-30T15:26:44;3.10;;;2.90;;
297;SDS011;133;49.626;9.680;2022-07-30T15:29:10;3.47;;;2.97;;
297;SDS011;133;49.626;9.680;2022-07-30T15:31:36;5.10;;;3.10;;
297;SDS011;133;49.626;9.680;2022-07-30T15:34:02;7.63;;;4.13;;
297;SDS011;133;49.626;9.680;2022-07-30T15:36:28;3.67;;;3.23;;
297;SDS011;133;49.626;9.680;2022-07-30T15:38:54;3.20;;;3.00;;
297;SDS011;133;49.626;9.680;2022-07-30T15:41:20;4.77;;;3.13;;
297;SDS011;133;49.626;9.680;2022-07-30T15:43:45;3.77;;;3.57;;
297;SDS011;133;49.626;9.680;2022-07-30T15:46:11;5.53;;;3.27;;
297;SDS011;133;49.626;9.680;2022-07-30T15:48:36;3.30;;;3.10;;
297;SDS011;133;49.626;9.680;2022-07-30T15:51:02;4.03;;;3.50;;
297;SDS011;133;49.626;9.680;2022-07-30T15:53:29;3.70;;;3.53;;
297;SDS011;133;49.626;9.680;2022-07-30T15:55:58;5.80;;;3.67;;
297;SDS011;133;49.626;9.680;2022-07-30T15:58:23;3.50;;;3.30;;
297;SDS011;133;49.626;9.680;2022-07-30T16:00:49;3.20;;;3.00;;
297;SDS011;133;49.626;9.680;2022-07-30T16:03:15;3.40;;;3.20;;
297;SDS011;133;49.626;9.680;2022-07-30T16:05:40;5.10;;;3.50;;
297;SDS011;133;49.626;9.680;2022-07-30T16:08:06;2.93;;;2.80;;
297;SDS011;133;49.626;9.680;2022-07-30T16:10:32;6.90;;;3.47;;
297;SDS011;133;49.626;9.680;2022-07-30T16:12:57;4.13;;;3.40;;
297;SDS011;133;49.626;9.680;2022-07-30T16:15:23;3.40;;;3.20;;
297;SDS011;133;49.626;9.680;2022-07-30T16:17:49;3.87;;;3.67;;
297;SDS011;133;49.626;9.680;2022-07-30T16:20:15;3.43;;;3.27;;
297;SDS011;133;49.626;9.680;2022-07-30T16:22:41;6.27;;;3.60;;